createdAt,value
2018-08-22T07:11:27.196Z,6948.00
2018-08-22T07:12:27.169Z,6752.00
2018-08-22T07:13:27.671Z,6684.00
2018-08-22T07:14:27.128Z,6680.00
2018-08-22T07:15:27.128Z,6692.00
2018-08-22T07:16:27.144Z,6636.00
2018-08-22T07:17:27.126Z,6600.00
2018-08-22T07:18:27.148Z,6700.00
2018-08-22T07:19:27.145Z,6836.00
2018-08-22T07:20:27.158Z,7016.00
2018-08-22T07:21:27.125Z,7260.00
2018-08-22T07:22:27.130Z,7684.00
2018-08-22T07:23:27.115Z,8324.00
2018-08-22T07:24:27.117Z,9136.00
2018-08-22T07:25:27.114Z,9512.00
2018-08-22T07:26:27.111Z,9800.00
2018-08-22T07:27:27.124Z,10120.00
2018-08-22T07:28:27.112Z,11404.00
2018-08-22T07:29:27.117Z,11152.00
2018-08-22T07:30:27.105Z,10552.00
2018-08-22T07:31:27.104Z,12044.00
2018-08-22T07:32:27.107Z,12692.00
2018-08-22T07:33:27.104Z,11268.00
2018-08-22T07:34:27.113Z,10604.00
2018-08-22T07:35:27.100Z,11232.00
2018-08-22T07:36:27.099Z,11448.00
2018-08-22T07:37:27.110Z,13384.00
2018-08-22T07:38:27.108Z,14944.00
2018-08-22T07:39:27.097Z,13320.00
2018-08-22T07:40:27.098Z,12516.00
2018-08-22T07:41:27.102Z,17100.00
2018-08-22T07:42:27.097Z,24896.00
2018-08-22T07:43:27.092Z,19712.00
2018-08-22T07:44:27.098Z,15240.00
2018-08-22T07:45:27.095Z,17000.00
2018-08-22T07:46:27.094Z,20544.00
2018-08-22T07:47:27.096Z,19968.00
2018-08-22T07:48:27.101Z,18432.00
2018-08-22T07:49:27.089Z,17760.00
2018-08-22T07:50:27.094Z,16960.00
2018-08-22T07:51:27.097Z,15016.00
2018-08-22T07:52:27.108Z,14076.00
2018-08-22T07:53:27.194Z,15044.00
2018-08-22T07:54:27.097Z,16596.00
2018-08-22T07:55:27.128Z,16444.00
2018-08-22T07:56:27.132Z,15564.00
2018-08-22T07:57:27.129Z,14304.00
2018-08-22T07:58:27.123Z,11996.00
2018-08-22T07:59:27.105Z,14384.00
2018-08-22T08:00:27.124Z,15792.00
2018-08-22T08:01:27.109Z,14836.00
2018-08-22T08:02:27.108Z,14248.00
2018-08-22T08:03:27.114Z,22720.00
2018-08-22T08:04:27.109Z,33792.00
2018-08-22T08:05:27.151Z,36768.00
2018-08-22T08:06:27.144Z,37920.00
2018-08-22T08:07:27.129Z,34208.00
2018-08-22T08:08:27.121Z,34528.00
2018-08-22T08:09:27.123Z,36992.00
2018-08-22T08:10:27.123Z,35776.00
2018-08-22T08:11:27.133Z,35872.00
2018-08-22T08:12:27.134Z,38752.00
2018-08-22T08:13:27.139Z,39136.00
2018-08-22T08:14:27.137Z,36768.00
2018-08-22T08:15:27.137Z,30688.00
2018-08-22T08:16:27.169Z,32416.00
2018-08-22T08:17:27.145Z,35328.00
2018-08-22T08:18:27.143Z,35424.00
2018-08-22T08:19:27.163Z,36864.00
2018-08-22T08:20:27.158Z,36672.00
2018-08-22T08:21:27.159Z,39808.00
2018-08-22T08:22:27.163Z,42368.00
2018-08-22T08:23:27.168Z,42144.00
2018-08-22T08:24:27.168Z,39424.00
2018-08-22T08:25:27.184Z,41088.00
2018-08-22T08:26:27.176Z,44032.00
2018-08-22T08:27:27.178Z,44416.00
2018-08-22T08:28:27.185Z,42464.00
2018-08-22T08:29:27.199Z,42144.00
2018-08-22T08:30:27.231Z,43264.00
2018-08-22T08:31:27.203Z,45696.00
2018-08-22T08:32:27.211Z,43584.00
2018-08-22T08:33:27.210Z,41792.00
2018-08-22T08:34:27.225Z,41312.00
2018-08-22T08:35:27.227Z,41856.00
2018-08-22T08:36:27.228Z,44896.00
2018-08-22T08:37:27.235Z,45824.00
2018-08-22T08:38:27.237Z,45952.00
2018-08-22T08:39:27.241Z,46912.00
2018-08-22T08:40:27.254Z,44160.00
2018-08-22T08:41:27.309Z,43488.00
2018-08-22T08:42:27.255Z,45088.00
2018-08-22T08:43:27.334Z,46624.00
2018-08-22T08:44:27.275Z,47136.00
2018-08-22T08:45:27.281Z,45088.00
2018-08-22T08:46:27.280Z,45696.00
2018-08-22T08:47:27.314Z,46592.00
2018-08-22T08:48:27.297Z,44320.00
2018-08-22T08:49:27.337Z,42720.00
2018-08-22T08:50:27.303Z,42368.00
2018-08-22T08:51:27.308Z,44256.00
2018-08-22T08:52:27.339Z,46784.00
2018-08-22T08:53:27.321Z,48960.00
2018-08-22T08:54:27.326Z,49728.00
2018-08-22T08:55:27.334Z,49088.00
2018-08-22T08:56:27.381Z,47456.00
2018-08-22T08:57:27.430Z,47264.00
2018-08-22T08:58:27.356Z,46880.00
2018-08-22T08:59:27.359Z,48640.00
2018-08-22T09:00:27.383Z,49856.00
2018-08-22T09:01:27.377Z,48480.00
2018-08-22T09:02:27.387Z,48192.00
2018-08-22T09:03:27.391Z,49088.00
2018-08-22T09:04:27.431Z,48992.00
2018-08-22T09:05:27.404Z,49248.00
2018-08-22T09:06:27.437Z,50112.00
2018-08-22T09:07:27.418Z,54592.00
2018-08-22T09:08:27.424Z,56384.00
2018-08-22T09:09:27.439Z,53728.00
2018-08-22T09:10:27.445Z,53088.00
2018-08-22T09:11:27.449Z,54848.00
2018-08-22T09:12:27.457Z,55200.00
2018-08-22T09:13:27.465Z,56064.00
2018-08-22T09:14:27.473Z,55552.00
2018-08-22T09:15:27.489Z,54976.00
2018-08-22T09:16:27.489Z,53856.00
2018-08-22T09:17:27.518Z,53952.00
2018-08-22T09:18:27.501Z,54400.00
2018-08-22T09:19:27.533Z,54304.00
2018-08-22T09:20:27.524Z,54080.00
2018-08-22T09:21:27.592Z,54784.00
2018-08-22T09:22:27.539Z,55424.00
2018-08-22T09:23:27.550Z,56032.00
2018-08-22T09:24:27.574Z,56512.00
2018-08-22T09:25:27.567Z,55520.00
2018-08-22T09:26:27.571Z,55360.00
2018-08-22T09:27:27.581Z,56384.00
2018-08-22T09:28:27.592Z,57024.00
2018-08-22T09:29:27.625Z,56544.00
2018-08-22T09:30:27.606Z,54880.00
2018-08-22T09:31:27.619Z,57504.00
2018-08-22T09:32:27.623Z,58528.00
2018-08-22T09:33:27.630Z,60256.00
2018-08-22T09:34:27.641Z,62560.00
2018-08-22T09:35:27.653Z,60256.00
2018-08-22T09:36:27.679Z,60480.00
2018-08-22T09:37:27.673Z,62176.00
2018-08-22T09:38:27.681Z,64224.00
2018-08-22T09:39:27.740Z,65024.00
2018-08-22T09:40:27.714Z,65664.00
2018-08-22T09:41:27.705Z,67424.00
2018-08-22T09:42:27.716Z,68032.00
2018-08-22T09:43:27.727Z,65888.00
2018-08-22T09:44:27.737Z,67520.00
2018-08-22T09:45:27.739Z,63616.00
2018-08-22T09:46:27.747Z,49504.00
2018-08-22T09:47:27.759Z,57408.00
2018-08-22T09:48:27.778Z,52992.00
2018-08-22T09:49:27.778Z,54656.00
2018-08-22T09:50:27.789Z,52992.00
2018-08-22T09:51:27.803Z,56512.00
2018-08-22T09:52:27.806Z,56128.00
2018-08-22T09:53:27.813Z,64000.00
2018-08-22T09:54:27.820Z,68448.00
2018-08-22T09:55:27.829Z,69888.00
2018-08-22T09:56:27.838Z,66656.00
2018-08-22T09:57:27.869Z,62208.00
2018-08-22T09:58:27.863Z,57696.00
2018-08-22T09:59:27.868Z,56896.00
2018-08-22T10:00:27.882Z,57728.00
2018-08-22T10:01:27.890Z,62816.00
2018-08-22T10:02:27.907Z,62336.00
2018-08-22T10:03:27.908Z,61024.00
2018-08-22T10:04:27.917Z,61280.00
2018-08-22T10:05:27.921Z,64800.00
2018-08-22T10:06:28.001Z,62976.00
2018-08-22T10:07:27.966Z,66048.00
2018-08-22T10:08:27.955Z,68256.00
2018-08-22T10:09:27.966Z,68992.00
2018-08-22T10:10:27.977Z,66752.00
2018-08-22T10:11:27.985Z,60736.00
2018-08-22T10:12:27.991Z,70944.00
2018-08-22T10:13:28.000Z,72608.00
2018-08-22T10:14:28.007Z,69504.00
2018-08-22T10:15:28.012Z,63744.00
2018-08-22T10:16:28.027Z,65952.00
2018-08-22T10:17:28.030Z,67776.00
2018-08-22T10:18:28.041Z,67232.00
2018-08-22T10:19:28.062Z,67264.00
2018-08-22T10:20:28.059Z,64224.00
2018-08-22T10:21:28.073Z,68448.00
2018-08-22T10:22:28.084Z,67648.00
2018-08-22T10:23:28.090Z,68416.00
2018-08-22T10:24:28.101Z,67072.00
2018-08-22T10:25:28.106Z,56320.00
2018-08-22T10:26:28.150Z,55872.00
2018-08-22T10:27:28.128Z,60800.00
2018-08-22T10:28:28.139Z,67904.00
2018-08-22T10:29:28.147Z,71072.00
2018-08-22T10:30:28.163Z,69888.00
2018-08-22T10:31:28.168Z,52352.00
2018-08-22T10:32:28.178Z,59712.00
2018-08-22T10:33:28.191Z,65696.00
2018-08-22T10:34:28.201Z,68384.00
2018-08-22T10:35:28.202Z,67840.00
2018-08-22T10:36:28.219Z,63968.00
2018-08-22T10:37:28.225Z,57376.00
2018-08-22T10:38:28.257Z,59840.00
2018-08-22T10:39:28.291Z,62144.00
2018-08-22T10:40:28.253Z,67456.00
2018-08-22T10:41:28.268Z,71648.00
2018-08-22T10:42:28.280Z,70240.00
2018-08-22T10:43:28.289Z,68992.00
2018-08-22T10:44:28.322Z,71808.00
2018-08-22T10:45:28.304Z,77120.00
2018-08-22T10:46:28.314Z,72224.00
2018-08-22T10:47:28.388Z,44832.00
2018-08-22T10:48:28.333Z,34240.00
2018-08-22T10:49:28.401Z,30432.00
2018-08-22T10:50:28.373Z,30944.00
2018-08-22T10:51:28.363Z,30752.00
2018-08-22T10:52:28.370Z,32064.00
2018-08-22T10:53:28.383Z,34304.00
2018-08-22T10:54:28.390Z,60832.00
2018-08-22T10:55:28.401Z,66048.00
2018-08-22T10:56:28.414Z,62880.00
2018-08-22T10:57:28.416Z,57952.00
2018-08-22T10:58:28.433Z,62144.00
2018-08-22T10:59:28.440Z,64768.00
2018-08-22T11:00:28.444Z,64384.00
2018-08-22T11:01:28.491Z,60512.00
2018-08-22T11:02:28.459Z,62976.00
2018-08-22T11:03:28.473Z,65184.00
2018-08-22T11:04:28.476Z,73504.00
2018-08-22T11:05:28.493Z,73632.00
2018-08-22T11:06:28.495Z,71072.00
2018-08-22T11:07:28.558Z,61408.00
2018-08-22T11:08:28.516Z,65792.00
2018-08-22T11:09:28.520Z,51872.00
2018-08-22T11:10:28.534Z,65504.00
2018-08-22T11:11:28.540Z,59168.00
2018-08-22T11:12:28.552Z,35808.00
2018-08-22T11:13:28.558Z,35552.00
2018-08-22T11:14:28.565Z,37408.00
2018-08-22T11:15:28.573Z,45248.00
2018-08-22T11:16:28.580Z,31264.00
2018-08-22T11:17:28.587Z,70080.00
2018-08-22T11:18:28.595Z,70176.00
2018-08-22T11:19:28.605Z,69344.00
2018-08-22T11:20:28.616Z,69728.00
2018-08-22T11:21:28.629Z,71424.00
2018-08-22T11:22:28.692Z,69600.00
2018-08-22T11:23:28.640Z,75392.00
2018-08-22T11:24:28.650Z,78976.00
2018-08-22T11:25:28.651Z,81152.00
2018-08-22T11:26:28.663Z,71168.00
2018-08-22T11:27:28.670Z,83072.00
2018-08-22T11:28:28.687Z,79328.00
2018-08-22T11:29:28.687Z,79296.00
2018-08-22T11:30:28.695Z,80480.00
2018-08-22T11:31:28.706Z,56960.00
2018-08-22T11:32:28.718Z,77152.00
2018-08-22T11:33:28.721Z,76768.00
2018-08-22T11:34:28.809Z,79296.00
2018-08-22T11:35:28.736Z,78400.00
2018-08-22T11:36:28.741Z,77696.00
2018-08-22T11:37:28.754Z,76576.00
2018-08-22T11:38:28.760Z,74272.00
2018-08-22T11:39:28.766Z,74144.00
2018-08-22T11:40:28.780Z,40512.00
2018-08-22T11:41:28.791Z,57152.00
2018-08-22T11:42:28.794Z,73856.00
2018-08-22T11:43:28.808Z,40352.00
2018-08-22T11:44:28.814Z,37728.00
2018-08-22T11:45:28.821Z,60512.00
2018-08-22T11:46:28.830Z,31392.00
2018-08-22T11:47:28.837Z,79808.00
2018-08-22T11:48:28.846Z,57088.00
2018-08-22T11:49:28.856Z,83232.00
2018-08-22T11:50:28.865Z,88096.00
2018-08-22T11:51:28.873Z,83296.00
2018-08-22T11:52:28.883Z,84032.00
2018-08-22T11:53:28.888Z,33504.00
2018-08-22T11:54:28.894Z,41408.00
2018-08-22T11:55:28.905Z,88832.00
2018-08-22T11:56:28.919Z,90560.00
2018-08-22T11:57:28.930Z,80192.00
2018-08-22T11:58:28.937Z,79264.00
2018-08-22T11:59:28.940Z,93216.00
2018-08-22T12:00:28.952Z,33312.00
2018-08-22T12:01:28.958Z,35008.00
2018-08-22T12:02:28.970Z,92672.00
2018-08-22T12:03:28.976Z,94304.00
2018-08-22T12:04:28.982Z,22880.00
2018-08-22T12:05:28.992Z,21952.00
2018-08-22T12:06:29.001Z,41888.00
2018-08-22T12:07:29.013Z,81600.00
2018-08-22T12:08:29.023Z,22432.00
2018-08-22T12:09:29.030Z,19744.00
2018-08-22T12:10:29.047Z,18944.00
2018-08-22T12:11:29.048Z,75584.00
2018-08-22T12:12:29.052Z,81984.00
2018-08-22T12:13:29.061Z,85888.00
2018-08-22T12:14:29.070Z,86464.00
2018-08-22T12:15:29.089Z,88064.00
2018-08-22T12:16:29.086Z,88192.00
2018-08-22T12:17:29.091Z,90208.00
2018-08-22T12:18:29.097Z,87808.00
2018-08-22T12:19:29.106Z,87744.00
2018-08-22T12:20:29.115Z,88320.00
2018-08-22T12:21:29.127Z,89600.00
2018-08-22T12:22:29.133Z,87040.00
2018-08-22T12:23:29.152Z,88768.00
2018-08-22T12:24:29.148Z,86784.00
2018-08-22T12:25:29.158Z,85376.00
2018-08-22T12:26:29.171Z,89696.00
2018-08-22T12:27:29.178Z,77696.00
2018-08-22T12:28:29.185Z,77280.00
2018-08-22T12:29:29.191Z,76704.00
2018-08-22T12:30:29.198Z,83040.00
2018-08-22T12:31:29.212Z,83936.00
2018-08-22T12:32:29.223Z,84192.00
2018-08-22T12:33:29.240Z,86656.00
2018-08-22T12:34:29.233Z,86784.00
2018-08-22T12:35:29.244Z,86624.00
2018-08-22T12:36:29.251Z,87200.00
2018-08-22T12:37:29.264Z,88160.00
2018-08-22T12:38:29.275Z,85152.00
2018-08-22T12:39:29.278Z,82976.00
2018-08-22T12:40:29.287Z,85856.00
2018-08-22T12:41:29.296Z,87776.00
2018-08-22T12:42:29.304Z,87520.00
2018-08-22T12:43:29.315Z,83584.00
2018-08-22T12:44:29.357Z,73888.00
2018-08-22T12:45:29.339Z,80032.00
2018-08-22T12:46:29.344Z,18816.00
2018-08-22T12:47:29.349Z,81760.00
2018-08-22T12:48:29.358Z,44992.00
2018-08-22T12:49:29.369Z,75040.00
2018-08-22T12:50:29.436Z,75648.00
2018-08-22T12:51:29.396Z,51936.00
2018-08-22T12:52:29.441Z,80864.00
2018-08-22T12:53:29.407Z,78880.00
2018-08-22T12:54:29.417Z,83296.00
2018-08-22T12:55:30.400Z,82560.00
2018-08-22T12:56:29.434Z,82816.00
2018-08-22T12:57:29.439Z,85600.00
2018-08-22T12:58:29.470Z,73952.00
2018-08-22T12:59:29.463Z,80320.00
2018-08-22T13:00:29.471Z,83616.00
2018-08-22T13:01:29.475Z,84992.00
2018-08-22T13:02:29.483Z,86784.00
2018-08-22T13:03:29.492Z,86400.00
2018-08-22T13:04:29.553Z,84256.00
2018-08-22T13:05:29.513Z,80384.00
2018-08-22T13:06:29.518Z,77888.00
2018-08-22T13:07:29.532Z,77152.00
2018-08-22T13:08:29.539Z,76896.00
2018-08-22T13:09:29.547Z,75744.00
2018-08-22T13:10:29.557Z,75456.00
2018-08-22T13:11:29.674Z,67552.00
2018-08-22T13:12:29.579Z,70304.00
2018-08-22T13:13:29.585Z,18288.00
2018-08-22T13:14:29.596Z,21056.00
2018-08-22T13:15:29.599Z,73952.00
2018-08-22T13:16:29.612Z,77088.00
2018-08-22T13:17:29.622Z,78752.00
2018-08-22T13:18:29.638Z,78752.00
2018-08-22T13:19:29.641Z,77120.00
2018-08-22T13:20:29.649Z,73952.00
2018-08-22T13:21:29.657Z,72576.00
2018-08-22T13:22:29.662Z,73280.00
2018-08-22T13:23:29.673Z,73248.00
2018-08-22T13:24:29.681Z,75584.00
2018-08-22T13:25:29.713Z,75616.00
2018-08-22T13:26:29.700Z,73856.00
2018-08-22T13:27:29.711Z,74848.00
2018-08-22T13:28:29.716Z,74592.00
2018-08-22T13:29:29.725Z,76224.00
2018-08-22T13:30:29.753Z,74496.00
2018-08-22T13:31:29.740Z,74368.00
2018-08-22T13:32:29.751Z,74944.00
2018-08-22T13:33:29.759Z,73088.00
2018-08-22T13:34:29.767Z,67392.00
2018-08-22T13:35:29.779Z,70080.00
2018-08-22T13:36:29.784Z,66464.00
2018-08-22T13:37:29.792Z,62912.00
2018-08-22T13:38:29.801Z,55488.00
2018-08-22T13:39:29.809Z,64064.00
2018-08-22T13:40:29.819Z,50688.00
2018-08-22T13:41:29.825Z,58784.00
2018-08-22T13:42:29.835Z,63328.00
2018-08-22T13:43:29.842Z,64608.00
2018-08-22T13:44:29.857Z,66720.00
2018-08-22T13:45:29.862Z,66656.00
2018-08-22T13:46:29.864Z,64672.00
2018-08-22T13:47:29.875Z,63936.00
2018-08-22T13:48:29.888Z,62048.00
2018-08-22T13:49:29.899Z,61408.00
2018-08-22T13:50:29.900Z,63168.00
2018-08-22T13:51:29.911Z,61472.00
2018-08-22T13:52:29.914Z,60064.00
2018-08-22T13:53:29.922Z,65344.00
2018-08-22T13:54:29.928Z,59136.00
2018-08-22T13:55:29.942Z,61024.00
2018-08-22T13:56:30.455Z,63072.00
2018-08-22T13:57:29.946Z,70592.00
2018-08-22T13:58:29.955Z,72000.00
2018-08-22T13:59:29.961Z,69952.00
2018-08-22T14:00:29.969Z,70016.00
2018-08-22T14:01:30.040Z,69312.00
2018-08-22T14:02:29.987Z,68896.00
2018-08-22T14:03:29.988Z,63776.00
2018-08-22T14:04:29.998Z,65696.00
2018-08-22T14:05:30.009Z,55104.00
2018-08-22T14:06:30.007Z,34080.00
2018-08-22T14:07:30.013Z,20480.00
2018-08-22T14:08:30.024Z,59872.00
2018-08-22T14:09:30.027Z,63232.00
2018-08-22T14:10:30.033Z,59744.00
2018-08-22T14:11:30.048Z,61792.00
2018-08-22T14:12:30.053Z,60544.00
2018-08-22T14:13:30.061Z,53824.00
2018-08-22T14:14:30.070Z,14772.00
2018-08-22T14:15:30.086Z,45696.00
2018-08-22T14:16:30.079Z,53664.00
2018-08-22T14:17:30.081Z,53504.00
2018-08-22T14:18:30.099Z,56544.00
2018-08-22T14:19:30.097Z,53792.00
2018-08-22T14:20:30.106Z,55680.00
2018-08-22T14:21:30.109Z,55296.00
2018-08-22T14:22:30.141Z,54848.00
2018-08-22T14:23:30.124Z,53216.00
2018-08-22T14:24:30.131Z,52064.00
2018-08-22T14:25:30.136Z,52448.00
2018-08-22T14:26:30.141Z,52224.00
2018-08-22T14:27:30.151Z,51424.00
2018-08-22T14:28:30.182Z,49728.00
2018-08-22T14:29:30.161Z,41696.00
2018-08-22T14:30:30.169Z,26432.00
2018-08-22T14:31:30.184Z,19136.00
2018-08-22T14:32:30.191Z,18176.00
2018-08-22T14:33:30.201Z,17104.00
2018-08-22T14:34:30.189Z,16000.00
2018-08-22T14:35:30.195Z,15128.00
2018-08-22T14:36:30.207Z,14360.00
2018-08-22T14:37:30.221Z,13612.00
2018-08-22T14:38:30.217Z,13476.00
2018-08-22T14:39:30.222Z,13420.00
2018-08-22T14:40:30.230Z,13200.00
2018-08-22T14:41:30.233Z,12800.00
2018-08-22T14:42:30.243Z,12652.00
2018-08-22T14:43:30.245Z,12608.00
2018-08-22T14:44:30.252Z,12568.00
2018-08-22T14:45:30.260Z,12464.00
2018-08-22T14:46:30.265Z,12452.00
2018-08-22T14:47:30.271Z,12256.00
2018-08-22T14:48:30.277Z,12360.00
2018-08-22T14:49:30.279Z,12068.00
2018-08-22T14:50:30.283Z,11164.00
2018-08-22T14:51:30.300Z,9860.00
2018-08-22T14:52:30.300Z,9200.00
2018-08-22T14:53:30.302Z,8748.00
2018-08-22T14:54:30.314Z,8440.00
2018-08-22T14:55:30.316Z,8276.00
2018-08-22T14:56:30.358Z,8156.00
2018-08-22T14:57:30.323Z,8548.00
2018-08-22T14:58:30.333Z,10160.00
2018-08-22T14:59:30.336Z,11436.00
2018-08-22T15:00:30.338Z,12088.00
2018-08-22T15:01:30.348Z,12312.00
2018-08-22T15:02:30.450Z,12356.00
2018-08-22T15:03:30.426Z,12516.00
2018-08-22T15:04:30.362Z,12404.00
2018-08-22T15:05:30.392Z,12056.00
2018-08-22T15:06:30.369Z,11752.00
2018-08-22T15:07:30.372Z,11128.00
2018-08-22T15:08:30.379Z,10520.00
2018-08-22T15:09:30.386Z,10052.00
2018-08-22T15:10:30.393Z,9748.00
2018-08-22T15:11:30.400Z,9636.00
2018-08-22T15:12:30.423Z,9572.00
2018-08-22T15:13:30.412Z,9460.00
2018-08-22T15:14:30.424Z,9432.00
2018-08-22T15:15:30.416Z,9536.00
2018-08-22T15:16:30.425Z,9652.00
2018-08-22T15:17:30.426Z,9724.00
2018-08-22T15:18:30.431Z,9788.00
2018-08-22T15:19:30.435Z,9868.00
2018-08-22T15:20:30.472Z,9972.00
2018-08-22T15:21:30.448Z,10012.00
2018-08-22T15:22:30.450Z,9856.00
2018-08-22T15:23:30.452Z,9684.00
2018-08-22T15:24:30.461Z,9584.00
2018-08-22T15:25:30.462Z,9648.00
2018-08-22T15:26:30.505Z,9576.00
2018-08-22T15:27:30.476Z,9424.00
2018-08-22T15:28:30.480Z,9300.00
2018-08-22T15:29:30.495Z,9048.00
2018-08-22T15:30:30.486Z,9040.00
2018-08-22T15:31:30.487Z,9220.00
2018-08-22T15:32:30.496Z,9388.00
2018-08-22T15:33:30.506Z,9568.00
2018-08-22T15:34:30.506Z,9752.00
2018-08-22T15:35:30.508Z,9848.00
2018-08-22T15:36:30.563Z,10044.00
2018-08-22T15:37:30.519Z,10336.00
2018-08-22T15:38:30.520Z,10608.00
2018-08-22T15:39:30.540Z,10584.00
2018-08-22T15:40:30.541Z,10520.00
2018-08-22T15:41:30.546Z,10340.00
2018-08-22T15:42:30.549Z,9980.00
2018-08-22T15:43:30.548Z,9644.00
2018-08-22T15:44:30.546Z,9288.00
2018-08-22T15:45:30.551Z,8820.00
2018-08-22T15:46:30.555Z,8516.00
2018-08-22T15:47:30.596Z,8296.00
2018-08-22T15:48:30.572Z,8056.00
2018-08-22T15:49:30.569Z,7836.00
2018-08-22T15:50:30.573Z,7636.00
2018-08-22T15:51:30.573Z,7456.00
2018-08-22T15:52:30.584Z,7304.00
2018-08-22T15:53:30.585Z,7164.00
2018-08-22T15:54:30.601Z,7056.00
2018-08-22T15:55:30.604Z,6960.00
2018-08-22T15:56:30.600Z,6872.00
2018-08-22T15:57:30.606Z,6800.00
2018-08-22T15:58:30.607Z,6764.00
2018-08-22T15:59:30.609Z,6720.00
2018-08-22T16:00:30.620Z,6684.00
2018-08-22T16:01:30.615Z,6648.00
2018-08-22T16:02:30.619Z,6592.00
2018-08-22T16:03:30.622Z,6516.00
2018-08-22T16:04:30.627Z,6384.00
2018-08-22T16:05:30.630Z,6272.00
2018-08-22T16:06:30.639Z,6268.00
2018-08-22T16:07:30.645Z,6304.00
2018-08-22T16:08:30.644Z,6304.00
2018-08-22T16:09:30.647Z,6264.00
2018-08-22T16:10:30.649Z,6204.00
2018-08-22T16:11:30.656Z,6192.00
2018-08-22T16:12:30.664Z,6176.00
2018-08-22T16:13:30.662Z,6156.00
2018-08-22T16:14:30.680Z,6152.00
2018-08-22T16:15:30.674Z,6116.00
2018-08-22T16:16:30.668Z,6020.00
2018-08-22T16:17:30.671Z,5924.00
2018-08-22T16:18:30.674Z,5924.00
2018-08-22T16:19:30.678Z,5976.00
2018-08-22T16:20:30.692Z,5980.00
2018-08-22T16:21:30.687Z,5952.00
2018-08-22T16:22:30.690Z,5900.00
2018-08-22T16:23:30.690Z,5860.00
2018-08-22T16:24:30.691Z,5804.00
2018-08-22T16:25:30.695Z,5768.00
2018-08-22T16:26:30.703Z,5700.00
2018-08-22T16:27:30.711Z,5600.00
2018-08-22T16:28:30.709Z,5504.00
2018-08-22T16:29:30.712Z,5424.00
2018-08-22T16:30:30.717Z,5364.00
2018-08-22T16:31:30.720Z,5348.00
2018-08-22T16:32:30.720Z,5336.00
2018-08-22T16:33:30.724Z,5328.00
2018-08-22T16:34:30.727Z,5308.00
2018-08-22T16:35:30.731Z,5264.00
2018-08-22T16:36:30.737Z,5200.00
2018-08-22T16:37:30.736Z,5124.00
2018-08-22T16:38:30.734Z,5060.00
2018-08-22T16:39:30.739Z,4996.00
2018-08-22T16:40:30.745Z,4940.00
2018-08-22T16:41:30.750Z,4864.00
2018-08-22T16:42:30.756Z,4780.00
2018-08-22T16:43:30.748Z,4708.00
2018-08-22T16:44:30.749Z,4644.00
2018-08-22T16:45:30.759Z,4568.00
2018-08-22T16:46:30.791Z,4480.00
2018-08-22T16:47:30.762Z,4392.00
2018-08-22T16:48:30.762Z,4304.00
2018-08-22T16:49:30.848Z,4204.00
2018-08-22T16:50:30.769Z,4112.00
2018-08-22T16:51:30.776Z,4032.00
2018-08-22T16:52:30.779Z,3956.00
2018-08-22T16:53:30.781Z,3872.00
2018-08-22T16:54:30.782Z,3788.00
2018-08-22T16:55:30.788Z,3704.00
2018-08-22T16:56:30.798Z,3616.00
2018-08-22T16:57:30.790Z,3552.00
2018-08-22T16:58:30.798Z,3496.00
2018-08-22T16:59:30.798Z,3432.00
2018-08-22T17:00:30.800Z,3376.00
2018-08-22T17:01:30.799Z,3328.00
2018-08-22T17:02:30.801Z,3292.00
2018-08-22T17:03:30.833Z,3252.00
2018-08-22T17:04:30.807Z,3212.00
2018-08-22T17:05:30.810Z,3168.00
2018-08-22T17:06:30.816Z,3112.00
2018-08-22T17:07:30.821Z,3052.00
2018-08-22T17:08:30.815Z,2996.00
2018-08-22T17:09:30.821Z,2944.00
2018-08-22T17:10:30.818Z,2900.00
2018-08-22T17:11:30.822Z,2852.00
2018-08-22T17:12:30.822Z,2808.00
2018-08-22T17:13:30.831Z,2764.00
2018-08-22T17:14:30.830Z,2712.00
2018-08-22T17:15:30.832Z,2668.00
2018-08-22T17:16:30.836Z,2620.00
2018-08-22T17:17:30.854Z,2576.00
2018-08-22T17:18:31.589Z,2540.00
2018-08-22T17:19:30.854Z,2504.00
2018-08-22T17:20:30.844Z,2460.00
2018-08-22T17:21:30.845Z,2420.00
2018-08-22T17:22:30.850Z,2376.00
2018-08-22T17:23:30.848Z,2328.00
2018-08-22T17:24:30.853Z,2276.00
2018-08-22T17:25:30.854Z,2228.00
2018-08-22T17:26:30.860Z,2168.00
2018-08-22T17:27:30.860Z,2104.00
2018-08-22T17:28:30.857Z,2052.00
2018-08-22T17:29:30.868Z,2000.00
2018-08-22T17:30:30.871Z,1952.00
2018-08-22T17:31:30.860Z,1912.00
2018-08-22T17:32:30.867Z,1876.00
2018-08-22T17:33:30.869Z,1836.00
2018-08-22T17:34:30.868Z,1780.00
2018-08-22T17:35:30.865Z,1740.00
2018-08-22T17:36:30.873Z,1696.00
2018-08-22T17:37:30.876Z,1648.00
2018-08-22T17:38:30.884Z,1592.00
2018-08-22T17:39:30.890Z,1552.00
2018-08-22T17:40:30.881Z,1516.00
2018-08-22T17:41:30.888Z,1492.00
2018-08-22T17:42:30.885Z,1468.00
2018-08-22T17:43:30.888Z,1444.00
2018-08-22T17:44:30.916Z,1416.00
2018-08-22T17:45:30.890Z,1384.00
2018-08-22T17:46:30.891Z,1352.00
2018-08-22T17:47:30.890Z,1320.00
2018-08-22T17:48:30.895Z,1280.00
2018-08-22T17:49:30.902Z,1240.00
2018-08-22T17:50:30.907Z,1196.00
2018-08-22T17:51:30.895Z,1152.00
2018-08-22T17:52:30.899Z,1112.00
2018-08-22T17:53:30.907Z,1068.00
2018-08-22T17:54:30.905Z,1024.00
2018-08-22T17:55:30.902Z,980.00
2018-08-22T17:56:30.909Z,948.00
2018-08-22T17:57:30.917Z,920.00
2018-08-22T17:58:30.911Z,888.00
2018-08-22T17:59:30.915Z,856.00
2018-08-22T18:00:30.912Z,828.00
2018-08-22T18:01:30.916Z,796.00
2018-08-22T18:02:30.917Z,764.00
2018-08-22T18:03:30.915Z,736.00
2018-08-22T18:04:30.923Z,708.00
2018-08-22T18:05:30.918Z,680.00
2018-08-22T18:06:30.993Z,660.00
2018-08-22T18:07:30.918Z,644.00
2018-08-22T18:08:30.925Z,624.00
2018-08-22T18:09:30.929Z,608.00
2018-08-22T18:10:30.928Z,588.00
2018-08-22T18:11:30.925Z,568.00
2018-08-22T18:12:30.931Z,548.00
2018-08-22T18:13:30.930Z,532.00
2018-08-22T18:14:30.929Z,516.00
2018-08-22T18:15:30.932Z,496.00
2018-08-22T18:16:30.937Z,480.00
2018-08-22T18:17:30.935Z,460.00
2018-08-22T18:18:30.951Z,436.00
2018-08-22T18:19:30.938Z,416.00
2018-08-22T18:20:30.941Z,396.00
2018-08-22T18:21:30.943Z,376.00
2018-08-22T18:22:30.942Z,360.00
2018-08-22T18:23:30.942Z,348.00
2018-08-22T18:24:30.944Z,328.00
2018-08-22T18:25:30.946Z,308.00
2018-08-22T18:26:31.014Z,296.00
2018-08-22T18:27:31.000Z,276.00
2018-08-22T18:28:30.952Z,260.00
2018-08-22T18:29:30.948Z,244.00
2018-08-22T18:30:30.949Z,228.00
2018-08-22T18:31:30.950Z,212.00
2018-08-22T18:32:30.947Z,200.00
2018-08-22T18:33:30.952Z,188.00
2018-08-22T18:34:30.959Z,176.00
2018-08-22T18:35:30.957Z,164.00
2018-08-22T18:36:30.982Z,152.00
2018-08-22T18:37:30.960Z,136.00
2018-08-22T18:38:30.959Z,124.00
2018-08-22T18:39:30.957Z,116.00
2018-08-22T18:40:30.974Z,104.00
2018-08-22T18:41:30.959Z,96.00
2018-08-22T18:42:30.958Z,84.00
2018-08-22T18:43:30.965Z,80.00
2018-08-22T18:44:30.967Z,72.00
2018-08-22T18:45:30.967Z,64.00
2018-08-22T18:46:30.962Z,60.00
2018-08-22T18:47:30.963Z,52.00
2018-08-22T18:48:30.970Z,44.00
2018-08-22T18:49:30.967Z,40.00
2018-08-22T18:50:30.964Z,36.00
2018-08-22T18:51:30.974Z,32.00
2018-08-22T18:52:30.974Z,28.00
2018-08-22T18:53:30.973Z,24.00
2018-08-22T18:54:30.971Z,20.00
2018-08-22T18:55:30.971Z,20.00
2018-08-22T18:56:30.971Z,16.00
2018-08-22T18:57:30.983Z,12.00
2018-08-22T18:58:30.970Z,12.00
2018-08-22T18:59:30.977Z,8.00
2018-08-22T19:00:30.979Z,8.00
2018-08-22T19:01:30.975Z,4.00
2018-08-22T19:02:30.971Z,8.00
2018-08-22T19:03:30.982Z,4.00
2018-08-22T19:04:30.997Z,4.00
2018-08-22T19:05:30.978Z,4.00